This is the latest recevied weather packets stored in our database for station/object CA3EVY-3. If no packets are shown the sender has not sent any weather packets the latest 10 day(s).
| Time | Temp. | Humidity | Pressure | Rain* | Wind** | Luminosity | Snow |
|---|---|---|---|---|---|---|---|
| 1777507208 | 19.44° C | 46% | 915.2 hPa | - | - | - | - |
| 1777506304 | 19.44° C | 46% | 915.3 hPa | - | - | - | - |
| 1777505409 | 20° C | 45% | 915.2 hPa | - | - | - | - |
| 1777504503 | 20° C | 45% | 915.3 hPa | - | - | - | - |
| 1777503604 | 20.56° C | 44% | 915.3 hPa | - | - | - | - |
| 1777502704 | 21.11° C | 44% | 915.3 hPa | - | - | - | - |
| 1777501804 | 21.67° C | 42% | 915.3 hPa | - | - | - | - |
| 1777500904 | 22.22° C | 42% | 915.3 hPa | - | - | - | - |
| 1777500014 | 22.78° C | 39% | 915.2 hPa | - | - | - | - |
| 1777499105 | 23.89° C | 39% | 915.1 hPa | - | - | - | - |
| 1777498204 | 24.44° C | 38% | 915.1 hPa | - | - | - | - |
| 1777497304 | 25° C | 38% | 915.1 hPa | - | - | - | - |
| 1777496404 | 25.56° C | 38% | 915.1 hPa | - | - | - | - |
| 1777495503 | 25.56° C | 38% | 915.1 hPa | - | - | - | - |
| 1777494609 | 25.56° C | 38% | 915.2 hPa | - | - | - | - |
| 1777493703 | 25.56° C | 38% | 915.3 hPa | - | - | - | - |
| 1777492804 | 25.56° C | 38% | 915.3 hPa | - | - | - | - |
| 1777491904 | 25.56° C | 38% | 915.3 hPa | - | - | - | - |
| 1777491004 | 25° C | 39% | 915.4 hPa | - | - | - | - |
| 1777490103 | 25° C | 39% | 915.5 hPa | - | - | - | - |
| 1777489204 | 24.44° C | 39% | 915.7 hPa | - | - | - | - |
| 1777488303 | 24.44° C | 39% | 915.7 hPa | - | - | - | - |
| 1777487405 | 24.44° C | 42% | 915.8 hPa | - | - | - | - |
| 1777486504 | 23.89° C | 42% | 916 hPa | - | - | - | - |
| 1777485605 | 23.89° C | 43% | 916.2 hPa | - | - | - | - |
* Rain since midnight (hover to see other rain measurements)
** Current wind speed in m/s (hover to see current wind gust speed)